Time;durP1;ratioP1;P1;durP2;ratioP2;P2;SDS_P1;SDS_P2;PMS_P1;PMS_P2;Temp;Humidity;BMP_temperature;BMP_pressure;BME280_temperature;BME280_humidity;BME280_pressure;Samples;Min_cycle;Max_cycle;Signal;HPM_P1;HPM_P2
2024/01/04 00:01:39;;;;;;;8.27;2.50;;;25.80;75.70;;;;;;5030272;28;20362;-77
2024/01/04 00:04:06;;;;;;;6.43;2.55;;;25.80;75.60;;;;;;5036947;28;20549;-78
2024/01/04 00:06:34;;;;;;;7.65;2.47;;;25.90;75.90;;;;;;5045578;28;20056;-77
2024/01/04 00:09:01;;;;;;;8.25;2.58;;;25.90;75.90;;;;;;5033509;28;20105;-80
2024/01/04 00:11:28;;;;;;;9.68;3.00;;;26.00;76.00;;;;;;5031923;28;20042;-77
2024/01/04 00:13:58;;;;;;;8.95;3.20;;;26.10;75.90;;;;;;5033239;28;20499;-77
2024/01/04 00:16:26;;;;;;;6.53;2.70;;;26.10;75.70;;;;;;5034545;28;20087;-77
2024/01/04 00:18:53;;;;;;;9.98;3.08;;;26.10;75.50;;;;;;5048296;28;20017;-82
2024/01/04 00:21:20;;;;;;;6.47;2.83;;;26.10;75.50;;;;;;5034396;28;20102;-83
2024/01/04 00:23:48;;;;;;;9.63;3.28;;;26.10;75.50;;;;;;5033892;28;20069;-78
2024/01/04 00:26:15;;;;;;;7.63;2.95;;;26.20;75.80;;;;;;5033129;28;20049;-79
2024/01/04 00:28:42;;;;;;;10.27;3.40;;;26.10;75.80;;;;;;5031720;28;20538;-82
2024/01/04 00:31:10;;;;;;;10.10;3.08;;;26.00;75.80;;;;;;5043733;28;20388;-77
2024/01/04 00:33:37;;;;;;;12.02;3.50;;;26.00;75.80;;;;;;5052570;28;20104;-78
2024/01/04 00:36:06;;;;;;;11.68;3.67;;;25.90;76.00;;;;;;5053768;28;20028;-76
2024/01/04 00:38:33;;;;;;;14.70;4.05;;;25.90;76.30;;;;;;5042688;28;20124;-81
2024/01/04 00:41:02;;;;;;;10.07;3.42;;;25.80;76.70;;;;;;5040121;28;20511;-78
2024/01/04 00:43:30;;;;;;;12.43;3.85;;;25.90;76.70;;;;;;5038430;28;20456;-78
2024/01/04 00:45:58;;;;;;;11.27;3.53;;;25.80;76.50;;;;;;5025640;28;20125;-77
2024/01/04 00:48:26;;;;;;;9.90;3.38;;;25.80;76.70;;;;;;5017561;28;20030;-77
2024/01/04 00:50:53;;;;;;;13.45;4.22;;;25.90;76.60;;;;;;5013726;28;20528;-77
2024/01/04 00:53:20;;;;;;;13.50;4.30;;;25.90;76.80;;;;;;5013562;28;20029;-76
2024/01/04 00:55:48;;;;;;;11.95;3.97;;;26.00;76.80;;;;;;5038037;28;20392;-76
2024/01/04 00:58:15;;;;;;;10.10;3.65;;;26.00;76.40;;;;;;5041770;28;20069;-78
2024/01/04 01:00:43;;;;;;;13.95;4.72;;;26.00;76.50;;;;;;5038702;28;20029;-85
2024/01/04 01:03:10;;;;;;;16.70;4.03;;;26.00;76.40;;;;;;5030281;28;20045;-78
2024/01/04 01:05:38;;;;;;;14.25;4.03;;;26.10;76.40;;;;;;5028839;28;20495;-83
2024/01/04 01:08:05;;;;;;;9.10;3.10;;;26.10;76.20;;;;;;5047032;28;20104;-82
2024/01/04 01:10:34;;;;;;;17.52;3.85;;;26.10;76.00;;;;;;5026702;28;20057;-84
2024/01/04 01:13:02;;;;;;;11.43;3.53;;;26.10;76.00;;;;;;5034671;28;20488;-87
2024/01/04 01:15:29;;;;;;;12.07;3.92;;;26.00;76.00;;;;;;5048798;28;20473;-87
2024/01/04 01:17:56;;;;;;;13.60;3.85;;;25.90;76.00;;;;;;5030197;28;20539;-77
2024/01/04 01:20:24;;;;;;;12.43;3.70;;;26.00;75.80;;;;;;5033900;28;20496;-85
2024/01/04 01:22:51;;;;;;;17.23;3.80;;;26.00;75.80;;;;;;5032972;28;20059;-77
2024/01/04 01:25:18;;;;;;;13.10;3.20;;;26.00;75.50;;;;;;5034943;28;20030;-78
2024/01/04 01:27:46;;;;;;;9.93;3.38;;;26.10;75.40;;;;;;5031867;28;20017;-79
2024/01/04 01:30:13;;;;;;;12.82;3.72;;;26.10;75.10;;;;;;5033434;28;20018;-83
2024/01/04 01:32:41;;;;;;;13.20;3.40;;;26.00;74.50;;;;;;5033255;28;20029;-86
2024/01/04 01:35:08;;;;;;;12.10;3.55;;;26.00;74.40;;;;;;5045353;28;20029;-82
2024/01/04 01:37:39;;;;;;;13.55;4.40;;;26.10;74.50;;;;;;5036157;28;20035;-81
2024/01/04 01:40:07;;;;;;;12.02;3.88;;;26.10;74.60;;;;;;5045198;28;20468;-78
2024/01/04 01:42:35;;;;;;;10.00;3.58;;;26.00;74.20;;;;;;5032244;28;20380;-79
2024/01/04 01:45:02;;;;;;;10.27;3.53;;;26.00;74.10;;;;;;5032823;28;20404;-81
2024/01/04 01:47:30;;;;;;;12.52;3.50;;;25.90;73.90;;;;;;5043928;28;20033;-78
2024/01/04 01:49:58;;;;;;;7.20;3.25;;;25.90;74.00;;;;;;5032784;28;20037;-82
2024/01/04 01:52:25;;;;;;;11.80;3.58;;;25.80;73.90;;;;;;5037972;28;20032;-77
2024/01/04 01:54:52;;;;;;;15.38;3.85;;;25.80;74.20;;;;;;5036977;28;20083;-78
2024/01/04 01:57:20;;;;;;;10.35;3.65;;;25.80;74.10;;;;;;5052971;28;20040;-78
2024/01/04 01:59:48;;;;;;;12.77;4.13;;;25.70;74.30;;;;;;5044129;28;20022;-77
2024/01/04 02:02:16;;;;;;;12.93;4.03;;;25.70;74.50;;;;;;5032406;28;20064;-77
2024/01/04 02:04:43;;;;;;;13.07;3.72;;;25.60;74.70;;;;;;5033002;28;20050;-81
2024/01/04 02:07:11;;;;;;;12.70;3.45;;;25.50;75.10;;;;;;5033021;28;20480;-77
2024/01/04 02:09:39;;;;;;;12.60;3.78;;;25.50;75.20;;;;;;5035652;28;20147;-79
2024/01/04 02:12:12;;;;;;;12.15;4.22;;;25.40;75.40;;;;;;5034055;28;20025;-87
2024/01/04 02:14:40;;;;;;;13.93;4.20;;;25.50;75.50;;;;;;5037925;28;20037;-81
2024/01/04 02:17:09;;;;;;;11.90;4.18;;;25.30;75.60;;;;;;5032696;28;20472;-84
2024/01/04 02:19:41;;;;;;;11.40;4.20;;;25.30;75.40;;;;;;5040420;28;20040;-78
2024/01/04 02:22:09;;;;;;;10.10;4.13;;;25.20;75.80;;;;;;5036297;28;20018;-78
2024/01/04 02:24:38;;;;;;;10.18;3.75;;;25.30;76.00;;;;;;5032407;28;20150;-78
2024/01/04 02:27:05;;;;;;;12.75;4.40;;;25.20;76.10;;;;;;5030842;28;20031;-78
2024/01/04 02:29:33;;;;;;;12.90;4.30;;;25.10;75.90;;;;;;5040474;28;20031;-78
2024/01/04 02:32:00;;;;;;;14.27;4.90;;;25.10;76.30;;;;;;5047071;28;20055;-87
2024/01/04 02:34:29;;;;;;;11.60;4.35;;;25.00;76.50;;;;;;5045422;28;20032;-87
2024/01/04 02:36:58;;;;;;;10.68;4.18;;;25.00;76.80;;;;;;5038589;28;20481;-87
2024/01/04 02:39:26;;;;;;;13.65;4.40;;;24.90;77.00;;;;;;5031817;28;20022;-80
2024/01/04 02:41:53;;;;;;;11.93;4.10;;;24.80;77.40;;;;;;5027578;28;20075;-87
2024/01/04 02:44:21;;;;;;;16.10;4.60;;;24.80;77.50;;;;;;5031880;28;20516;-84
2024/01/04 02:46:48;;;;;;;12.95;4.30;;;24.80;77.60;;;;;;5033407;28;20053;-79
2024/01/04 02:49:18;;;;;;;13.05;4.30;;;24.80;77.70;;;;;;5032493;28;20385;-84
2024/01/04 02:51:45;;;;;;;18.35;4.72;;;24.80;77.80;;;;;;5038773;28;20119;-83
2024/01/04 02:54:13;;;;;;;17.92;4.78;;;24.80;78.10;;;;;;5034496;28;20117;-84
2024/01/04 02:56:41;;;;;;;22.70;4.53;;;24.70;78.20;;;;;;5037829;28;20022;-87
2024/01/04 02:59:11;;;;;;;15.80;5.03;;;24.70;78.50;;;;;;5037366;28;20104;-85
2024/01/04 03:01:41;;;;;;;18.38;5.20;;;24.70;78.60;;;;;;5031707;28;20095;-84
2024/01/04 03:04:08;;;;;;;15.85;4.85;;;24.60;78.60;;;;;;5044940;28;20045;-79
2024/01/04 03:06:36;;;;;;;15.07;4.55;;;24.50;78.80;;;;;;5043892;28;20029;-82
2024/01/04 03:09:04;;;;;;;17.33;5.68;;;24.60;79.00;;;;;;5034254;28;20041;-87
2024/01/04 03:11:31;;;;;;;17.05;4.55;;;24.50;79.20;;;;;;5034951;28;20048;-84
2024/01/04 03:13:58;;;;;;;13.45;4.25;;;24.50;79.20;;;;;;5029498;28;20022;-82
2024/01/04 03:16:27;;;;;;;15.73;4.72;;;24.50;79.20;;;;;;5032916;28;20025;-78
2024/01/04 03:18:56;;;;;;;16.77;4.65;;;24.50;79.30;;;;;;5047496;28;20051;-87
2024/01/04 03:21:25;;;;;;;12.60;4.78;;;24.30;79.40;;;;;;5036897;28;20120;-78
2024/01/04 03:23:53;;;;;;;11.95;4.65;;;24.30;79.40;;;;;;5037856;28;20025;-87
2024/01/04 03:26:20;;;;;;;14.52;5.20;;;24.30;79.40;;;;;;5036884;28;20040;-85
2024/01/04 03:28:49;;;;;;;17.33;5.53;;;24.30;79.50;;;;;;5036658;28;20391;-77
2024/01/04 03:31:16;;;;;;;16.38;4.93;;;24.30;79.60;;;;;;5039935;28;20028;-84
2024/01/04 03:33:44;;;;;;;14.48;5.15;;;24.30;79.60;;;;;;5054437;28;20402;-86
2024/01/04 03:36:14;;;;;;;13.40;5.20;;;24.20;79.60;;;;;;5051141;28;20030;-78
2024/01/04 03:38:41;;;;;;;13.93;5.13;;;24.30;79.80;;;;;;5036278;28;20080;-77
2024/01/04 03:41:12;;;;;;;17.88;5.38;;;24.20;79.90;;;;;;5037053;28;20053;-84
2024/01/04 03:43:39;;;;;;;14.52;4.93;;;24.20;80.00;;;;;;5037380;28;20431;-76
2024/01/04 03:46:10;;;;;;;13.75;5.00;;;24.20;80.10;;;;;;5035707;28;20033;-81
2024/01/04 03:48:37;;;;;;;21.55;5.32;;;24.20;80.10;;;;;;5034037;28;20116;-83
2024/01/04 03:51:06;;;;;;;15.48;4.47;;;24.10;80.20;;;;;;5043402;28;20037;-84
2024/01/04 03:53:33;;;;;;;14.25;4.95;;;24.10;80.20;;;;;;5052553;28;20152;-85
2024/01/04 03:56:02;;;;;;;13.40;4.60;;;24.10;80.20;;;;;;5056429;28;20029;-78
2024/01/04 03:58:29;;;;;;;13.70;4.47;;;24.10;80.00;;;;;;5047655;28;20472;-80
2024/01/04 04:00:58;;;;;;;13.68;4.43;;;24.10;80.10;;;;;;5051466;28;20033;-80
2024/01/04 04:03:25;;;;;;;15.63;5.22;;;24.10;80.10;;;;;;5048820;28;20046;-77
2024/01/04 04:05:52;;;;;;;19.15;4.70;;;24.10;80.20;;;;;;5050433;28;20048;-87
2024/01/04 04:08:20;;;;;;;13.23;4.45;;;24.10;79.90;;;;;;5048062;28;20024;-75
2024/01/04 04:10:49;;;;;;;16.85;4.65;;;24.10;80.20;;;;;;5054987;28;20029;-77
2024/01/04 04:13:17;;;;;;;18.52;4.72;;;24.00;80.40;;;;;;5059453;28;20053;-75
2024/01/04 04:15:44;;;;;;;17.48;4.80;;;24.00;80.80;;;;;;5053847;28;20025;-77
2024/01/04 04:18:12;;;;;;;12.43;4.20;;;24.00;81.00;;;;;;5044061;28;20025;-83
2024/01/04 04:20:39;;;;;;;11.30;4.28;;;24.00;81.10;;;;;;5026559;28;20026;-77
2024/01/04 04:23:06;;;;;;;11.93;3.88;;;24.00;81.50;;;;;;5014895;28;20036;-77
2024/01/04 04:25:37;;;;;;;21.08;4.47;;;24.00;81.50;;;;;;5031046;28;20025;-85
2024/01/04 04:28:04;;;;;;;15.35;4.38;;;24.00;81.60;;;;;;5017209;28;20084;-81
2024/01/04 04:30:33;;;;;;;18.13;4.75;;;24.00;81.70;;;;;;5020980;28;20021;-85
2024/01/04 04:33:00;;;;;;;14.40;4.20;;;24.00;81.70;;;;;;5043439;28;20393;-75
2024/01/04 04:35:28;;;;;;;17.27;4.68;;;24.00;81.80;;;;;;5037227;28;20018;-79
2024/01/04 04:37:56;;;;;;;19.58;4.97;;;23.90;81.70;;;;;;5043309;28;20036;-77
2024/01/04 04:40:23;;;;;;;16.88;4.75;;;23.90;81.80;;;;;;5031474;28;20026;-83
2024/01/04 04:42:50;;;;;;;14.40;4.22;;;23.90;82.00;;;;;;5036594;28;20026;-78
2024/01/04 04:45:18;;;;;;;17.77;5.13;;;23.90;82.00;;;;;;5040177;28;20042;-82
2024/01/04 04:47:45;;;;;;;14.68;4.60;;;23.90;82.20;;;;;;5028415;28;20120;-77
2024/01/04 04:50:13;;;;;;;17.30;4.75;;;23.80;82.20;;;;;;5024877;28;20071;-82
2024/01/04 04:52:40;;;;;;;18.08;4.35;;;23.80;82.30;;;;;;5037272;28;20029;-78
2024/01/04 04:55:07;;;;;;;13.90;4.43;;;23.80;82.50;;;;;;5039635;28;20128;-79
2024/01/04 04:57:35;;;;;;;15.82;4.82;;;23.80;82.60;;;;;;5041316;28;20045;-77
2024/01/04 05:00:02;;;;;;;16.05;4.82;;;23.80;82.70;;;;;;5055948;28;20039;-78
2024/01/04 05:02:30;;;;;;;15.48;4.93;;;23.80;82.90;;;;;;5035407;28;20374;-80
2024/01/04 05:04:57;;;;;;;16.98;5.25;;;23.80;83.20;;;;;;5042148;28;20067;-84
2024/01/04 05:07:24;;;;;;;14.30;4.68;;;23.70;83.10;;;;;;5024331;28;20477;-77
2024/01/04 05:09:52;;;;;;;12.20;4.80;;;23.70;83.30;;;;;;5020730;28;20037;-77
2024/01/04 05:12:19;;;;;;;14.43;4.88;;;23.60;83.50;;;;;;5030731;28;20087;-87
2024/01/04 05:14:47;;;;;;;14.63;4.85;;;23.60;83.90;;;;;;5039533;28;20038;-78
2024/01/04 05:17:14;;;;;;;16.55;5.05;;;23.50;83.90;;;;;;5035010;28;20022;-78
2024/01/04 05:19:44;;;;;;;16.90;4.65;;;23.40;84.00;;;;;;5026081;28;20033;-76
2024/01/04 05:22:13;;;;;;;16.38;5.05;;;23.40;84.50;;;;;;5027503;28;20028;-77
2024/01/04 05:24:40;;;;;;;22.25;4.70;;;23.40;84.70;;;;;;5031642;28;21700;-77
2024/01/04 05:27:08;;;;;;;18.27;5.15;;;23.30;84.70;;;;;;5025310;28;20513;-76
2024/01/04 05:29:35;;;;;;;18.92;4.78;;;23.30;84.80;;;;;;5028105;28;20113;-76
2024/01/04 05:32:03;;;;;;;16.85;5.13;;;23.30;85.00;;;;;;5022748;28;20025;-77
2024/01/04 05:34:32;;;;;;;19.45;5.05;;;23.30;85.30;;;;;;5013183;28;20160;-82
2024/01/04 05:36:59;;;;;;;15.18;5.10;;;23.20;85.50;;;;;;5030718;28;20029;-76
2024/01/04 05:39:27;;;;;;;18.65;5.32;;;23.20;85.50;;;;;;5047579;28;20155;-78
2024/01/04 05:41:54;;;;;;;18.52;5.05;;;23.20;85.70;;;;;;5036401;28;20053;-77
2024/01/04 05:44:22;;;;;;;16.00;4.82;;;23.20;85.80;;;;;;5023100;28;20014;-76
2024/01/04 05:46:50;;;;;;;14.05;5.30;;;23.20;85.90;;;;;;5046276;28;20152;-77
2024/01/04 05:49:18;;;;;;;16.95;5.22;;;23.20;85.90;;;;;;5052519;28;20468;-78
2024/01/04 05:51:46;;;;;;;16.70;4.55;;;23.20;86.00;;;;;;5023882;28;20497;-78
2024/01/04 05:54:13;;;;;;;18.10;5.47;;;23.20;86.10;;;;;;5033315;28;20032;-78
2024/01/04 05:56:42;;;;;;;17.90;5.10;;;23.20;86.10;;;;;;5030696;28;20455;-80
2024/01/04 05:59:10;;;;;;;15.57;4.55;;;23.10;86.20;;;;;;5028582;28;20025;-77
2024/01/04 06:01:39;;;;;;;22.83;5.50;;;23.10;86.30;;;;;;5036617;28;20025;-76
2024/01/04 06:04:06;;;;;;;12.55;4.82;;;23.10;86.30;;;;;;5030745;28;20045;-77
2024/01/04 06:06:33;;;;;;;14.02;4.60;;;23.10;86.30;;;;;;5020980;28;20492;-81
2024/01/04 06:09:03;;;;;;;18.38;5.10;;;23.00;86.50;;;;;;5032977;28;20026;-78
2024/01/04 06:11:31;;;;;;;15.02;5.20;;;23.10;86.50;;;;;;5034372;28;20092;-83
2024/01/04 06:13:58;;;;;;;19.33;5.05;;;23.10;86.60;;;;;;5030991;28;20374;-79
2024/01/04 06:16:25;;;;;;;11.10;4.28;;;23.10;86.70;;;;;;5024767;28;20105;-78
2024/01/04 06:18:53;;;;;;;16.25;4.85;;;23.00;86.70;;;;;;5035362;28;20037;-78
2024/01/04 06:21:21;;;;;;;14.77;4.82;;;23.00;86.70;;;;;;5035636;28;20017;-79
2024/01/04 06:23:49;;;;;;;16.08;4.22;;;23.00;86.80;;;;;;5051318;28;20043;-85
2024/01/04 06:26:20;;;;;;;15.68;4.60;;;23.00;86.60;;;;;;5052387;28;20037;-78
2024/01/04 06:28:48;;;;;;;14.02;4.80;;;23.00;86.80;;;;;;5049257;28;20033;-77
2024/01/04 06:31:15;;;;;;;14.15;4.65;;;23.10;86.70;;;;;;5023295;28;20160;-84
2024/01/04 06:33:42;;;;;;;19.17;4.88;;;23.10;86.70;;;;;;5039869;28;20040;-78
2024/01/04 06:36:10;;;;;;;19.70;4.93;;;23.10;86.60;;;;;;5039494;28;20384;-78
2024/01/04 06:38:37;;;;;;;20.75;5.47;;;23.10;86.60;;;;;;5052629;28;20384;-78
2024/01/04 06:41:07;;;;;;;20.85;5.20;;;23.10;86.50;;;;;;5052622;28;20071;-77
2024/01/04 06:43:34;;;;;;;17.10;4.47;;;23.10;86.50;;;;;;5052411;28;20032;-78
2024/01/04 06:46:03;;;;;;;12.40;4.63;;;23.10;86.40;;;;;;5052230;28;20400;-78
2024/01/04 06:48:31;;;;;;;13.82;4.47;;;23.20;86.50;;;;;;5052265;28;20013;-78
2024/01/04 06:50:58;;;;;;;19.35;5.18;;;23.20;86.60;;;;;;5041667;28;20029;-78
2024/01/04 06:53:26;;;;;;;16.48;4.68;;;23.20;86.40;;;;;;5031968;28;20026;-77
2024/01/04 06:55:53;;;;;;;19.13;5.00;;;23.20;86.40;;;;;;5030974;28;20396;-89
2024/01/04 06:58:20;;;;;;;16.38;4.90;;;23.10;86.40;;;;;;5043173;28;20025;-79
2024/01/04 07:00:48;;;;;;;19.58;5.07;;;23.20;86.40;;;;;;5032927;28;20021;-83
2024/01/04 07:03:19;;;;;;;18.70;4.85;;;23.20;86.40;;;;;;5031347;28;20041;-78
2024/01/04 07:05:47;;;;;;;13.68;4.50;;;23.20;86.50;;;;;;5028778;28;20124;-79
2024/01/04 07:08:16;;;;;;;21.02;5.20;;;23.20;86.50;;;;;;5032480;28;20022;-81
2024/01/04 07:10:43;;;;;;;21.02;4.40;;;23.20;86.30;;;;;;5020438;28;20026;-81
2024/01/04 07:13:12;;;;;;;17.38;4.88;;;23.20;86.30;;;;;;5012726;28;20030;-80
2024/01/04 07:15:39;;;;;;;19.77;4.80;;;23.20;86.30;;;;;;5012692;28;20026;-81
2024/01/04 07:18:07;;;;;;;18.50;5.20;;;23.20;86.30;;;;;;5015692;28;20084;-80
2024/01/04 07:20:34;;;;;;;17.85;4.82;;;23.20;86.30;;;;;;5015475;28;20030;-92
2024/01/04 07:23:02;;;;;;;14.07;4.95;;;23.20;86.20;;;;;;5012194;28;20477;-80
2024/01/04 07:25:32;;;;;;;13.82;5.05;;;23.20;86.10;;;;;;5011899;28;20050;-81
2024/01/04 07:28:00;;;;;;;14.27;4.45;;;23.20;86.20;;;;;;5011951;28;20040;-82
2024/01/04 07:30:27;;;;;;;18.83;5.20;;;23.20;86.20;;;;;;5012554;28;20069;-80
2024/01/04 07:32:55;;;;;;;14.25;4.90;;;23.20;86.20;;;;;;5012334;28;20053;-79
2024/01/04 07:35:23;;;;;;;16.63;4.80;;;23.20;86.10;;;;;;5047557;28;20017;-81
2024/01/04 07:37:51;;;;;;;18.63;5.70;;;23.20;86.20;;;;;;5052554;28;20029;-80
2024/01/04 07:40:18;;;;;;;15.65;5.00;;;23.30;85.90;;;;;;5053211;28;20023;-81
2024/01/04 07:42:45;;;;;;;20.50;5.55;;;23.20;85.80;;;;;;5039048;28;20026;-92
2024/01/04 07:45:13;;;;;;;17.17;5.03;;;23.20;85.80;;;;;;5016268;28;20500;-80
2024/01/04 07:47:40;;;;;;;14.70;4.18;;;23.20;85.70;;;;;;5032077;28;20029;-80
2024/01/04 07:50:08;;;;;;;17.70;5.43;;;23.30;85.80;;;;;;5035190;28;20018;-81
2024/01/04 07:52:35;;;;;;;13.70;4.18;;;23.30;85.70;;;;;;5034495;28;20022;-92
2024/01/04 07:55:03;;;;;;;14.48;4.97;;;23.30;85.70;;;;;;5032158;28;20017;-94
2024/01/04 07:57:30;;;;;;;14.82;4.53;;;23.30;85.50;;;;;;5028060;28;20108;-91
2024/01/04 07:59:58;;;;;;;18.77;4.60;;;23.20;85.40;;;;;;5031187;28;20091;-81
2024/01/04 08:02:28;;;;;;;16.52;4.63;;;23.30;85.60;;;;;;5026006;28;20488;-84
2024/01/04 08:04:56;;;;;;;19.92;4.60;;;23.30;85.50;;;;;;5045563;28;20044;-83
2024/01/04 08:07:24;;;;;;;16.52;4.60;;;23.30;85.50;;;;;;5051946;28;20028;-80
2024/01/04 08:09:51;;;;;;;10.65;3.80;;;23.30;85.40;;;;;;5029858;28;20566;-80
2024/01/04 08:12:19;;;;;;;15.40;4.05;;;23.30;85.40;;;;;;5023133;28;20033;-80
2024/01/04 08:14:46;;;;;;;18.45;5.00;;;23.30;85.30;;;;;;5020636;28;20551;-82
2024/01/04 08:17:13;;;;;;;19.27;4.38;;;23.30;85.00;;;;;;5031519;28;20057;-81
2024/01/04 08:19:41;;;;;;;17.88;5.60;;;23.20;84.90;;;;;;5041622;28;20025;-78
2024/01/04 08:22:08;;;;;;;13.57;5.13;;;23.30;85.00;;;;;;5019952;28;20030;-80
2024/01/04 08:24:36;;;;;;;16.05;4.65;;;23.20;85.00;;;;;;5033812;28;20022;-79
2024/01/04 08:27:03;;;;;;;14.20;4.25;;;23.30;85.00;;;;;;5032621;28;20507;-79
2024/01/04 08:29:32;;;;;;;12.55;3.78;;;23.30;85.00;;;;;;5045337;28;20029;-79
2024/01/04 08:31:59;;;;;;;14.52;4.93;;;23.30;84.80;;;;;;5051162;28;20032;-94
2024/01/04 08:34:27;;;;;;;14.20;4.40;;;23.30;84.80;;;;;;5034324;28;20017;-79
2024/01/04 08:36:54;;;;;;;15.25;4.68;;;23.30;84.80;;;;;;5038146;28;20029;-80
2024/01/04 08:39:22;;;;;;;15.32;5.07;;;23.30;84.70;;;;;;5034505;28;20552;-92
2024/01/04 08:41:49;;;;;;;12.05;4.38;;;23.30;84.50;;;;;;5035820;28;20465;-82
2024/01/04 08:44:17;;;;;;;14.15;3.63;;;23.20;84.50;;;;;;5025022;28;20041;-78
2024/01/04 08:46:44;;;;;;;18.25;4.95;;;23.20;84.60;;;;;;5041783;28;20398;-80
2024/01/04 08:49:12;;;;;;;14.18;3.90;;;23.20;84.60;;;;;;5034531;28;20075;-88
2024/01/04 08:51:39;;;;;;;15.15;4.15;;;23.20;84.50;;;;;;5033592;28;20065;-79
2024/01/04 08:54:06;;;;;;;16.20;3.90;;;23.20;84.50;;;;;;5033177;28;20216;-79
2024/01/04 08:56:35;;;;;;;16.20;4.00;;;23.20;84.60;;;;;;5034192;28;20029;-79
2024/01/04 08:59:03;;;;;;;16.77;3.97;;;23.20;84.60;;;;;;5031493;28;20029;-78
2024/01/04 09:01:31;;;;;;;21.85;3.90;;;23.20;84.70;;;;;;5028065;28;20022;-83
2024/01/04 09:03:58;;;;;;;13.80;3.88;;;23.20;84.70;;;;;;5033814;28;20103;-79
2024/01/04 09:06:25;;;;;;;17.15;4.32;;;23.20;84.80;;;;;;5044982;28;20048;-79
2024/01/04 09:08:53;;;;;;;16.40;3.90;;;23.20;84.80;;;;;;5051474;28;20040;-80
2024/01/04 09:11:20;;;;;;;15.10;4.07;;;23.20;84.60;;;;;;5045029;28;20448;-81
2024/01/04 09:13:48;;;;;;;20.40;3.47;;;23.20;84.70;;;;;;5033274;28;20109;-80
2024/01/04 09:16:16;;;;;;;12.75;3.42;;;23.10;84.40;;;;;;5038534;28;20082;-81
2024/01/04 09:18:43;;;;;;;13.38;2.95;;;23.10;84.20;;;;;;5040704;28;20055;-80
2024/01/04 09:21:11;;;;;;;9.63;2.63;;;23.10;84.30;;;;;;5023955;28;20425;-79
2024/01/04 09:23:38;;;;;;;12.32;2.70;;;23.10;84.10;;;;;;5024603;28;20080;-80
2024/01/04 09:26:09;;;;;;;12.60;3.10;;;23.10;84.00;;;;;;5025405;28;20031;-80
2024/01/04 09:28:36;;;;;;;12.55;2.58;;;23.10;83.90;;;;;;5050512;28;20530;-83
2024/01/04 09:31:06;;;;;;;13.23;2.60;;;23.10;83.60;;;;;;5032668;28;20492;-92
2024/01/04 09:33:34;;;;;;;12.32;2.33;;;23.00;83.50;;;;;;5036835;28;20423;-80
2024/01/04 09:36:02;;;;;;;9.65;2.05;;;23.00;83.30;;;;;;5037669;28;20068;-77
2024/01/04 09:38:32;;;;;;;6.15;1.73;;;23.00;83.30;;;;;;5027384;28;20445;-83
2024/01/04 09:41:12;;;;;;;10.65;2.50;;;22.90;83.20;;;;;;5014328;28;20037;-89
2024/01/04 09:43:41;;;;;;;12.07;2.92;;;22.90;82.80;;;;;;5025661;28;20029;-90
2024/01/04 09:46:12;;;;;;;9.23;2.08;;;22.90;82.70;;;;;;5020488;28;20034;-79
2024/01/04 09:48:42;;;;;;;13.80;2.22;;;22.80;82.70;;;;;;5026438;28;20040;-79
2024/01/04 09:51:10;;;;;;;13.73;2.22;;;22.80;82.00;;;;;;5025533;28;20029;-80
2024/01/04 09:53:38;;;;;;;11.73;2.10;;;22.80;82.40;;;;;;5019094;28;20063;-79
2024/01/04 09:56:08;;;;;;;8.32;2.08;;;22.80;82.40;;;;;;5026837;28;20509;-78
2024/01/04 09:58:35;;;;;;;9.07;2.25;;;22.80;82.50;;;;;;5024679;28;20022;-82
2024/01/04 10:01:05;;;;;;;11.73;2.40;;;22.80;82.60;;;;;;5024794;28;20476;-91
2024/01/04 10:03:32;;;;;;;7.55;1.48;;;22.80;82.60;;;;;;5014733;28;20049;-79
2024/01/04 10:06:02;;;;;;;10.10;1.95;;;22.80;82.70;;;;;;5010967;28;20441;-79
2024/01/04 10:08:45;;;;;;;10.93;2.45;;;22.80;82.40;;;;;;5018122;28;20040;-80
2024/01/04 10:11:21;;;;;;;14.68;2.22;;;22.80;82.30;;;;;;5019380;28;20031;-79
2024/01/04 10:13:49;;;;;;;12.43;1.73;;;22.80;82.30;;;;;;5019903;28;20080;-86
2024/01/04 10:16:18;;;;;;;8.88;2.10;;;22.80;82.40;;;;;;5016430;28;20044;-80
2024/01/04 10:18:47;;;;;;;12.68;2.13;;;22.80;82.60;;;;;;5027480;28;20040;-89
2024/01/04 10:21:15;;;;;;;11.32;2.15;;;22.80;82.70;;;;;;5025983;28;20037;-84
2024/01/04 10:23:43;;;;;;;15.52;2.45;;;22.80;82.60;;;;;;5029799;28;20532;-86
2024/01/04 10:26:17;;;;;;;12.80;2.08;;;22.80;82.50;;;;;;5031746;28;20164;-88
2024/01/04 10:28:44;;;;;;;10.23;2.53;;;22.80;82.50;;;;;;5039444;28;20031;-92
2024/01/04 10:31:14;;;;;;;12.05;2.30;;;22.80;82.50;;;;;;5027716;28;20532;-87
2024/01/04 10:33:55;;;;;;;12.80;2.35;;;22.80;82.30;;;;;;5032682;28;20021;-89
2024/01/04 10:36:23;;;;;;;10.90;2.40;;;22.70;82.30;;;;;;5028632;28;20030;-89
2024/01/04 10:38:50;;;;;;;10.45;2.35;;;22.80;82.30;;;;;;5039985;28;20017;-89
2024/01/04 10:41:20;;;;;;;12.25;2.67;;;22.70;82.40;;;;;;5022830;28;20089;-89
2024/01/04 10:43:48;;;;;;;10.20;2.67;;;22.70;82.30;;;;;;5025199;28;20483;-89
2024/01/04 10:46:15;;;;;;;10.90;1.88;;;22.60;82.30;;;;;;5029539;28;20049;-90
2024/01/04 10:48:45;;;;;;;10.05;2.00;;;22.70;82.30;;;;;;5026627;28;20034;-91
2024/01/04 10:51:33;;;;;;;8.73;1.85;;;22.60;82.20;;;;;;5028593;28;20121;-80
2024/01/04 10:54:02;;;;;;;11.50;2.08;;;22.60;82.30;;;;;;5037545;28;20109;-81
2024/01/04 10:56:34;;;;;;;7.75;1.83;;;22.60;82.50;;;;;;5023951;28;20040;-91
2024/01/04 10:59:06;;;;;;;9.90;1.85;;;22.60;82.50;;;;;;5032294;28;20022;-92
2024/01/04 11:01:34;;;;;;;8.70;1.98;;;22.60;82.60;;;;;;5028146;28;20026;-88
2024/01/04 11:04:03;;;;;;;7.90;1.63;;;22.60;82.70;;;;;;5029285;28;20058;-88
2024/01/04 11:06:34;;;;;;;5.40;1.80;;;22.60;82.70;;;;;;5024462;28;20121;-89
2024/01/04 11:09:02;;;;;;;9.25;2.20;;;22.70;82.70;;;;;;5043995;28;20033;-87
2024/01/04 11:11:30;;;;;;;9.98;1.90;;;22.70;82.60;;;;;;5031524;28;20128;-88
2024/01/04 11:14:07;;;;;;;6.57;1.77;;;22.60;82.20;;;;;;5036428;28;20013;-87
2024/01/04 11:16:46;;;;;;;7.72;1.58;;;22.60;81.90;;;;;;5035831;28;20079;-87
2024/01/04 11:19:17;;;;;;;8.65;1.58;;;22.60;82.00;;;;;;5021235;28;20029;-83
2024/01/04 11:22:13;;;;;;;5.85;1.33;;;22.50;81.70;;;;;;5030354;28;20025;-83
2024/01/04 11:24:59;;;;;;;10.05;2.03;;;22.50;82.00;;;;;;5014183;28;20067;-86
2024/01/04 11:27:28;;;;;;;9.15;1.75;;;22.60;82.10;;;;;;5051043;28;20036;-86
2024/01/04 11:29:56;;;;;;;7.68;1.67;;;22.50;82.20;;;;;;5030575;28;20054;-89
2024/01/04 11:32:24;;;;;;;13.13;1.70;;;22.60;82.20;;;;;;5031065;28;20447;-85
2024/01/04 11:34:51;;;;;;;8.32;1.92;;;22.60;82.40;;;;;;5022898;28;20017;-88
2024/01/04 11:37:23;;;;;;;10.88;2.28;;;22.70;82.50;;;;;;5032797;28;20026;-88
2024/01/04 11:40:03;;;;;;;9.82;1.63;;;22.60;82.40;;;;;;5021691;28;20358;-80
2024/01/04 11:42:41;;;;;;;9.18;2.08;;;22.60;82.40;;;;;;5035078;28;20029;-87
2024/01/04 11:45:15;;;;;;;15.48;3.05;;;22.60;82.30;;;;;;5033460;28;20034;-89
2024/01/04 11:47:45;;;;;;;10.98;2.25;;;22.60;82.20;;;;;;5022992;28;20120;-82
2024/01/04 11:50:24;;;;;;;13.80;2.25;;;22.50;82.00;;;;;;5036770;28;20376;-77
2024/01/04 11:53:03;;;;;;;11.63;1.90;;;22.50;81.90;;;;;;5050929;28;20029;-90
2024/01/04 11:55:33;;;;;;;9.52;2.08;;;22.50;82.00;;;;;;5048670;28;20030;-78
2024/01/04 11:58:11;;;;;;;12.25;2.30;;;22.50;81.90;;;;;;5044290;28;20051;-87
2024/01/04 12:00:47;;;;;;;8.20;1.92;;;22.50;81.70;;;;;;5044966;28;20100;-77
2024/01/04 12:03:17;;;;;;;7.95;1.90;;;22.50;82.00;;;;;;5047734;28;20057;-82
2024/01/04 12:05:46;;;;;;;14.55;2.38;;;22.40;82.10;;;;;;5028625;28;20112;-89
2024/01/04 12:08:30;;;;;;;8.65;2.20;;;22.40;81.60;;;;;;5047278;28;20083;-78
2024/01/04 12:11:03;;;;;;;13.23;2.20;;;22.40;81.90;;;;;;5034747;28;20026;-82
2024/01/04 12:13:31;;;;;;;9.65;2.22;;;22.30;81.70;;;;;;5053594;28;20025;-80
2024/01/04 12:15:59;;;;;;;11.57;2.17;;;22.40;82.00;;;;;;5054059;28;20017;-78
2024/01/04 12:18:29;;;;;;;8.65;2.40;;;22.40;82.00;;;;;;5031474;28;20051;-84
2024/01/04 12:20:59;;;;;;;8.85;2.10;;;22.40;82.00;;;;;;5042169;28;20096;-78
2024/01/04 12:23:27;;;;;;;12.50;2.92;;;22.30;81.60;;;;;;5040547;28;20115;-79
2024/01/04 12:25:54;;;;;;;12.30;2.22;;;22.30;81.40;;;;;;5033216;28;20040;-88
2024/01/04 12:28:22;;;;;;;10.45;2.25;;;22.30;81.60;;;;;;5036479;28;21738;-81
2024/01/04 12:30:50;;;;;;;12.77;2.42;;;22.30;81.80;;;;;;5054412;28;20075;-78
2024/01/04 12:33:17;;;;;;;11.00;2.05;;;22.30;81.80;;;;;;5032048;28;20028;-77
2024/01/04 12:35:45;;;;;;;11.25;2.30;;;22.30;81.90;;;;;;5037002;28;20443;-85
2024/01/04 12:38:14;;;;;;;16.13;2.97;;;22.30;82.20;;;;;;5043337;28;20032;-84
2024/01/04 12:40:43;;;;;;;14.32;2.45;;;22.30;82.50;;;;;;5028676;28;20029;-78
2024/01/04 12:43:15;;;;;;;12.65;2.45;;;22.30;82.70;;;;;;5042073;28;20052;-84
2024/01/04 12:45:42;;;;;;;14.07;1.92;;;22.30;82.90;;;;;;5044629;28;20456;-78